Altmar, NY

10:28 PM EDT on August 27, 2014 (GMT -0400)
Pulaski, NY | Change Station
CLOSE
Current Station
Personal Weather Station
Location: Pulaski, NY
Elevation: 425 ft
Nearby Weather Stations

Elev 425 ft 43.57 °N, 76.13 °W | Updated 9 seconds ago

Partly Cloudy
Partly Cloudy
66.2 °F
Feels Like 66.2 °F
N
0.7
Wind Variable Wind from NE
Gusts 1.6 mph

Today
High -- | Low -- °F
--% Chance of Precip.
Yesterday
High -- | Low -- °F
Precip. -- in
6:22 AM 7:47 PM
Waxing Crescent, 6% visible
Pressure 30.00 in
Visibility 10.0 miles
Clouds Clear
Dew Point 58 °F
Humidity 76%
Rainfall 0.00 in
Snow Depth Not available.
UV 0 out of 12
Pollen 8.50 out of 12
Air Quality Not available.
Flu Activity Not available.
METAR KFZY 280154Z AUTO 29007KT 10SM CLR 18/14 A3000 RMK AO2 SLP158 T01780144

More Conditions Fewer Conditions

Pressure 30.00 in
Visibility 10.0 miles
Clouds Clear
Dew Point 58 °F
Humidity 76%
Rainfall 0.00 in
Snow Depth Not available.
UV 0 out of 12
Pollen 8.50 out of 12
Air Quality Not available.
Flu Activity Not available.
METAR KFZY 280154Z AUTO 29007KT 10SM CLR 18/14 A3000 RMK AO2 SLP158 T01780144

More Conditions Fewer Conditions

10-Day Weather Forecast

Almanac

Astronomy

Aug. 27, 2014 Rise Set
Actual Time 6:22 AM EDT 7:47 PM EDT
Civil Twilight 5:52 AM EDT 8:17 PM EDT
Nautical Twilight 5:16 AM EDT 8:53 PM EDT
Astronomical Twilight 4:37 AM EDT 9:31 PM EDT
Moon 8:20 AM EDT (8/27) 8:33 PM EDT (8/27)
Length of Visible Light 14h 25m
Length of Day
13h 25m
Tomorrow will be 2m 49s shorter.
Waxing Crescent, 6% of the Moon is Illuminated
Today
Waxing Crescent
Sep 2
First Quarter
Sep 8
Full
Sep 15
Last Quarter
Sep 24
New

Today's Extremes

State Highs State Lows

Community

WunderPhotos

Upload Photos

1,747,872 photos uploaded!

Nearby

Air Quality

  Air Quality AQ Index Pollutant
Wednesday Good
OZONE
Wednesday Good
PM2.5
Thursday Good
OZONE
Thursday Good
PM2.5

Snow Depth

Station Depth Elevation
No new snow has been reported.

Earthquake Activity

City Distance Mag. Time & Date
No recent earthquake activity has been reported nearby.
Minimum magnitude displayed is 2.5.

Coastal Water Temperatures

Place Temperature
Alexandria Bay, NY 70.0 °F
Ogdensburg, NY 64.9 °F

Nearby Weather Stations